Etusivu
METAR-TAF:

METAR-TAF

Lentoasemat :

Dortmund, Saksa

Leveyspiiri: 51-31N, Pituuspiiri: 007-37E, korkeus merenpinnasta: 127 m

Tämänhetkinen sää

Tämä raportti tehtiin 31 minuuttia sitten, kello 19.20 UTC
Tuuli 4 kn koillisesta
Lämpötila 23°C
Kosteus 44%
Ilmanpaine 1023 hPa
Näkyvyys 10 km tai enemmän
ei pilviä alle 1500 m:ssä eikä cumulonimbus-pilviä

METAR: EDLW 231920Z 04004KT CAVOK 23/10 Q1023

Aika: 21:51 (19:51 UTC)

Sääennuste

Tämä raportti tehtiin 2 tuntia ja 51 minuuttia sitten, kello 17.00 UTC
Ennuste voimassa 23. päivästä klo 18 UTC - 24. päivään klo 18 UTC
Tuuli 4 kn idästä
Näkyvyys 10 km tai enemmän
ei pilviä alle 1500 m:ssä eikä cumulonimbus-pilviä
Ajoittain
24. päivästä klo 12 UTC - 24. päivään klo 17 UTC
Tuuli 9 kn idästä/koillisesta

TAF: EDLW 231700Z 2318/2418 09004KT CAVOK TEMPO 2412/2417 06009KT

Säähavainnot ja -ennusteet yli 4000 lentoasemalta (METAR- ja TAF-raportit).

Käytössä olevat sääasemat on merkitty karttaan keltaisilla ja punaisilla pisteillä.

Aseta hiiri pisteen päälle nähdäksesi sääaseman nimen.

Klikkaa sitten nähdäksesi säähavainnot ja -ennusteet.

Kartan vaihtaminen: klikkaa mustalla rastilla varustettuja vihreitä pisteitä, niin voit zoomata sisään; viivalla varustettua vihreää pistettä, niin voit zoomata ulos tai vihreitä nuolia, niin pääset viereisille kartoille.


METAR-TAF: